Impacts METAR Board INFO
IDs:

KLAX - Los Angeles Intl, CA, US

Updated at: 2150 UTC 25 Feb 2018
Potential Impact None Slight Moderate High
Time25/09Z 25/10Z 25/11Z 25/12Z 25/13Z 25/14Z 25/15Z 25/16Z 25/17Z 25/18Z 25/19Z 25/20Z 25/21Z
VIS10 10 10 10 10 10 10 10 10 10 10 10 10
CIG-- -- -- -- -- -- -- -- -- -- -- -- --
CoverCLRFEWCLRCLRCLRCLRFEWFEWFEWFEWFEWCLRCLR
FltCatVFRVFRVFRVFRVFRVFRVFRVFRVFRVFRVFRVFRVFR
WX--------------------------
WDir9060508050800300500900
WSpd5 6 8 5 6 3 0 4 0 7 4 5 0
WGst-- -- -- -- -- -- -- -- -- -- -- -- --
Raw hourly METARs
KLAX 250853Z 09005KT 10SM CLR 09/03 A3019 RMK AO2 SLP220 T00890028 55004
KLAX 250953Z 06006KT 10SM FEW200 08/02 A3018 RMK AO2 SLP217 T00830022
KLAX 251053Z 05008KT 10SM CLR 08/01 A3017 RMK AO2 SLP216 T00830006
KLAX 251153Z 08005KT 10SM CLR 07/00 A3017 RMK AO2 SLP217 T00670000 10122 20067 56005
KLAX 251253Z 05006KT 10SM CLR 08/01 A3018 RMK AO2 SLP219 T00780006
KLAX 251353Z 08003KT 10SM CLR 07/00 A3020 RMK AO2 SLP226 T00720000
KLAX 251453Z 00000KT 10SM FEW021 08/00 A3022 RMK AO2 SLP231 T00830000 53015
KLAX 251553Z 03004KT 10SM FEW021 FEW300 12/01 A3023 RMK AO2 SLP235 T01170011
KLAX 251653Z 00000KT 10SM FEW021 FEW300 13/04 A3024 RMK AO2 SLP238 T01330044
KLAX 251753Z 05007KT 10SM FEW021 FEW300 16/00 A3023 RMK AO2 SLP236 T01560000 10156 20067 50007
KLAX 251853Z VRB04KT 10SM FEW300 17/M03 A3023 RMK AO2 SLP235 T01721028
KLAX 251953Z 09005KT 10SM CLR 18/M04 A3020 RMK AO2 SLP227 T01831044
KLAX 252053Z 00000KT 10SM CLR 19/M06 A3017 RMK AO2 SLP216 T01941056 58020